KMOP

Details ICAO KMOP
Name MOUNT PLEASANT MUNI
Region United States
Timezone America/Detroit (UTC-5.0)
Plans Departing 3
Arriving 5
Stats Elevation 755 ft / 230 m (AMSL)
Location 43.621791° -84.738793°
Runways 2
Magnetic Variation 6.535° W
Sunrise 2017-12-12 13:04:45 UTC / 2017-12-12 08:04:45 Local
Sunset 2017-12-12 22:03:42 UTC / 2017-12-12 17:03:42 Local
Advertisement - Login to hide

Runways

ID Width Length Bearing (true) Bearing (mag) Surface Threshold Offset Overrun Length
05 160 ft / 49 m 2,497 ft / 761 m 57.20° 63.74° Grass 0 ft / 0 m 0 ft / 0 m
09 100 ft / 30 m 4,988 ft / 1,520 m 90.96° 97.50° Asphalt 0 ft / 0 m 0 ft / 0 m
23 160 ft / 49 m 2,497 ft / 761 m 237.21° 243.75° Grass 0 ft / 0 m 0 ft / 0 m
27 100 ft / 30 m 4,988 ft / 1,520 m 270.97° 277.51° Asphalt 0 ft / 0 m 0 ft / 0 m

Map

Weather


0- 5 10 15 20 25 30 35+ Temperature / ° C

Clouds and Precipitation
Forecast for 2017-12-12 06:00 UTC. Updated 2 hours ago

Ground ~20,000 ft ~40,000 ft Winds

METAR

KMOP 120655Z AUTO 31011G21KT 10SM SCT024 OVC050 M03/M07 A2972 RMK AO2 T10311074

TAF

Not found

Frequencies

Unicom 123.00 MHz CTAF/UNICOM
Approach 126.45 MHz SAGINAW APP/DEP
Warning: Do not use this data for real-world aviation or navigation. No guarantee of current accuracy is given.